METAR Data
IDs: Format: Raw Decoded Include TAF

Data at: 0926 UTC 25 Mar 2019

KWVI 250853Z AUTO 36003KT 10SM CLR 07/04 A3012 RMK AO2 SLP199 T00670044 58018
KWVI 250753Z AUTO 34004KT 10SM CLR 07/04 A3015 RMK AO2 SLP209 T00720044 401780044
KWVI 250653Z AUTO 34005KT 10SM CLR 08/05 A3016 RMK AO2 SLP213 T00780050
KWVI 250553Z AUTO 34004KT 10SM CLR 09/05 A3017 RMK AO2 SLP217 T00890050 10161 20078 51006
KWVI 250453Z AUTO 36005KT 10SM CLR 09/06 A3017 RMK AO2 SLP215 T00940056
KWVI 250353Z AUTO 34004KT 10SM CLR 11/06 A3017 RMK AO2 SLP214 T01060061
KWVI 250253Z AUTO 00000KT 10SM CLR 13/02 A3015 RMK AO2 SLP212 T01280022 58004
KWVI 250153Z AUTO 29003KT 10SM CLR 14/03 A3016 RMK AO2 SLP213 T01440028
KWVI 250053Z AUTO 28004KT 10SM CLR 14/03 A3016 RMK AO2 SLP213 T01440033
KWVI 242353Z AUTO 22006KT 10SM CLR 16/05 A3017 RMK AO2 SLP214 T01610050 10178 20139 56011
KWVI 242253Z AUTO 24007KT 10SM CLR 16/06 A3017 RMK AO2 SLP217 T01560061
KWVI 242153Z AUTO 26007KT 10SM CLR 16/07 A3018 RMK AO2 SLP219 T01610067
KWVI 242053Z AUTO 28007KT 10SM CLR 17/06 A3020 RMK AO2 SLP225 T01670061 58014
KWVI 241953Z AUTO 00000KT 10SM CLR 17/04 A3021 RMK AO2 SLP230 T01670044
KWVI 241853Z AUTO 00000KT 10SM CLR 17/07 A3024 RMK AO2 SLP238 T01670072
KWVI 241753Z AUTO 12004KT 10SM CLR 14/07 A3024 RMK AO2 SLP239 T01390067 10139 20044 50007
KWVI 241653Z AUTO 14003KT 10SM CLR 11/07 A3024 RMK AO2 SLP240 T01110067
KWVI 241553Z AUTO 00000KT 10SM CLR 08/06 A3023 RMK AO2 SLP235 T00830056
KWVI 241453Z AUTO 00000KT 10SM CLR 05/03 A3022 RMK AO2 SLP232 T00500033 53008
KWVI 241353Z AUTO 34003KT 10SM CLR 04/03 A3020 RMK AO2 SLP228 T00440033
KWVI 241253Z AUTO 33004KT 10SM CLR 04/03 A3019 RMK AO2 SLP223 T00440033
KWVI 241153Z AUTO 33003KT 10SM CLR 05/04 A3019 RMK AO2 SLP224 70003 T00500044 10083 20050 58011
KWVI 241053Z AUTO 34003KT 10SM CLR 06/04 A3020 RMK AO2 SLP227 T00560044
KWVI 240953Z AUTO 00000KT 10SM CLR 06/05 A3022 RMK AO2 SLP234 T00610050
No TAF found for KWVI

KSNS 250853Z AUTO 15007KT 10SM CLR 07/05 A3012 RMK AO2 SLP207 T00720050 58015
KSNS 250753Z AUTO 00000KT 10SM CLR 08/05 A3014 RMK AO2 SLP215 T00830050 401940061
KSNS 250653Z AUTO 00000KT 10SM CLR 10/06 A3015 RMK AO2 SLP220 T01000056
KSNS 250553Z AUTO 25003KT 10SM CLR 11/07 A3016 RMK AO2 SLP222 T01060067 10172 20106 50004
KSNS 250453Z AUTO 00000KT 10SM CLR 12/04 A3017 RMK AO2 SLP224 T01170044
KSNS 250353Z AUTO 00000KT 10SM CLR 13/04 A3015 RMK AO2 SLP220 T01330039
KSNS 250253Z AUTO 35005KT 10SM CLR 14/05 A3015 RMK AO2 SLP218 T01390050 56001
KSNS 250153Z AUTO 32008KT 10SM CLR 15/05 A3015 RMK AO2 SLP219 T01500050
KSNS 250053Z AUTO 32007KT 10SM CLR 16/06 A3015 RMK AO2 SLP217 T01610061
KSNS 242353Z AUTO 32007KT 10SM CLR 17/05 A3015 RMK AO2 SLP219 T01670050 10194 20133 56010
KSNS 242253Z AUTO 31009KT 10SM CLR 17/06 A3016 RMK AO2 SLP223 T01720056
KSNS 242153Z AUTO 30011KT 10SM CLR 17/06 A3016 RMK AO2 SLP223 T01720056
KSNS 242053Z 17005KT 10SM CLR 19/04 A3018 RMK AO2 SLP229 T01940044 58013
KSNS 241953Z 15011KT 10SM CLR 18/07 A3019 RMK AO2 SLP233 T01830067
KSNS 241853Z 14011KT 10SM CLR 16/08 A3021 RMK AO2 SLP239 T01560078
KSNS 241753Z 14013KT 10SM CLR 13/07 A3022 RMK AO2 SLP242 T01330072 10133 20061 50003
KSNS 241653Z 13014KT 10SM CLR 11/06 A3022 RMK AO2 SLP243 T01110061
KSNS 241553Z 13013KT 10SM CLR 08/05 A3022 RMK AO2 SLP243 T00830050
KSNS 241453Z 14006KT 10SM CLR 07/04 A3021 RMK AO2 SLP239 T00670039 53009
KSNS 241353Z 13008KT 10SM CLR 07/04 A3019 RMK AO2 SLP232 T00670039
KSNS 241253Z 15010KT 10SM CLR 07/04 A3018 RMK AO2 SLP229 T00670039
KSNS 241153Z AUTO 14007KT 10SM CLR 07/04 A3018 RMK AO2 SLP230 70004 T00670039 10111 20061 58012
KSNS 241053Z AUTO 15004KT 10SM CLR 07/04 A3020 RMK AO2 SLP235 T00670044
KSNS 240953Z AUTO 00000KT 10SM CLR 07/05 A3022 RMK AO2 SLP242 T00720050

KSNS 250520Z 2506/2606 VRB04KT P6SM SCT200
  FM250900 12012KT P6SM SCT200
  FM251700 12015G25KT P6SM OVC120
  FM252200 14014G19KT P6SM -RA SCT050 BKN070 OVC100
  FM260100 29010KT 5SM -RA BR BKN008 BKN015 OVC025


KMRY 250854Z AUTO 13004KT 10SM CLR 07/04 A3012 RMK AO2 SLP210 T00720039 58018
KMRY 250754Z AUTO 12005KT 10SM CLR 08/04 A3014 RMK AO2 SLP218 T00830044 401720067
KMRY 250654Z AUTO 12007KT 10SM CLR 08/04 A3015 RMK AO2 SLP223 T00830044
KMRY 250554Z AUTO 12005KT 10SM CLR 09/04 A3017 RMK AO2 SLP228 T00890044 10161 20089 51006
KMRY 250454Z AUTO 13005KT 10SM CLR 11/04 A3017 RMK AO2 SLP227 T01060044
KMRY 250354Z 10004KT 10SM CLR 11/05 A3016 RMK AO2 SLP226 T01110050
KMRY 250254Z 00000KT 10SM CLR 14/04 A3015 RMK AO2 SLP222 T01390039 56003
KMRY 250154Z 27006KT 10SM CLR 15/04 A3016 RMK AO2 SLP224 T01500039
KMRY 250054Z 27006KT 10SM CLR 16/04 A3015 RMK AO2 SLP221 T01560044
KMRY 242354Z 26010KT 10SM CLR 16/04 A3016 RMK AO2 SLP225 T01610044 10172 20144 56013
KMRY 242254Z 23010KT 10SM CLR 16/04 A3017 RMK AO2 SLP228 T01610044
KMRY 242154Z 24009KT 10SM CLR 16/04 A3018 RMK AO2 SLP231 T01610044
KMRY 242054Z 31005KT 10SM CLR 17/05 A3020 RMK AO2 SLP238 T01670050 58011
KMRY 241954Z 32006KT 10SM CLR 16/04 A3021 RMK AO2 SLP243 T01610044
KMRY 241854Z 31006KT 10SM CLR 16/03 A3023 RMK AO2 SLP248 T01560028
KMRY 241754Z 30004KT 10SM CLR 15/04 A3023 RMK AO2 SLP249 T01500044 10150 20067 51008
KMRY 241654Z 27003KT 10SM CLR 13/05 A3023 RMK AO2 SLP249 T01280050
KMRY 241554Z 00000KT 10SM CLR 11/04 A3021 RMK AO2 SLP243 T01110039
KMRY 241454Z 11003KT 10SM CLR 09/03 A3020 RMK AO2 SLP241 T00890028 53010
KMRY 241354Z 11004KT 10SM CLR 08/02 A3018 RMK AO2 SLP233 T00830017
KMRY 241254Z AUTO 15003KT 10SM CLR 07/02 A3017 RMK AO2 SLP230 T00720022
KMRY 241154Z AUTO 13008KT 10SM CLR 07/03 A3017 RMK AO2 SLP231 70002 T00720028 10106 20072 58014
KMRY 241054Z AUTO 12007KT 10SM CLR 07/03 A3019 RMK AO2 SLP235 T00720028
KMRY 240954Z AUTO 12007KT 10SM CLR 08/03 A3021 RMK AO2 SLP242 T00780033

KMRY 250520Z 2506/2606 11005KT P6SM SCT200
  FM251800 19008KT P6SM FEW025 OVC100
  FM252100 19010KT P6SM -RA SCT040 OVC070
  FM260000 25004KT 6SM -RA BR BKN009 BKN015 OVC025


KSJC 250853Z AUTO 18006KT 10SM CLR 11/06 A3009 RMK AO2 SLP190 T01110056 58017
KSJC 250753Z AUTO 17006KT 10SM CLR 12/06 A3011 RMK AO2 SLP197 T01170061 401940050
KSJC 250653Z 19005KT 10SM FEW090 SCT160 12/07 A3013 RMK AO2 SLP203 LAST T01170067
KSJC 250553Z 10006KT 10SM FEW090 SCT160 13/M02 A3014 RMK AO2 SLP207 T01281017 10194 20117 50006
KSJC 250453Z 18005KT 10SM FEW090 BKN160 14/M02 A3015 RMK AO2 SLP208 T01391017
KSJC 250353Z 00000KT 10SM FEW100 SCT160 BKN200 13/M02 A3015 RMK AO2 SLP208 T01331017
KSJC 250253Z 32009KT 10SM FEW100 SCT160 13/M02 A3013 RMK AO2 SLP200 T01331022 50000
KSJC 250153Z 33013G17KT 10SM FEW035 BKN120 BKN160 15/M02 A3014 RMK AO2 SLP204 T01501022
KSJC 250053Z VRB06KT 10SM FEW035 BKN140 OVC200 19/M02 A3012 RMK AO2 SLP199 T01941017
KSJC 242353Z 14008KT 10SM FEW035 BKN140 OVC200 19/M02 A3013 RMK AO2 SLP201 T01891017 10194 20133 56017
KSJC 242253Z 14006KT 10SM FEW035 BKN140 OVC200 19/M02 A3014 RMK AO2 SLP205 T01941022
KSJC 242153Z 12003KT 10SM FEW035 BKN140 OVC200 19/M02 A3015 RMK AO2 SLP208 T01941022
KSJC 242053Z VRB04KT 10SM FEW035 BKN140 OVC200 18/M02 A3018 RMK AO2 SLP218 T01831022 58020
KSJC 241953Z 15003KT 10SM FEW035 SCT140 OVC180 18/M02 A3020 RMK AO2 SLP225 T01781017
KSJC 241853Z 00000KT 10SM FEW035 OVC200 16/M02 A3022 RMK AO2 SLP234 T01611017
KSJC 241753Z 00000KT 10SM FEW140 OVC180 13/M01 A3024 RMK AO2 SLP238 T01331011 10139 20050 50004
KSJC 241653Z 00000KT 10SM BKN160 11/M01 A3024 RMK AO2 SLP238 T01061006
KSJC 241553Z COR 15005KT 10SM BKN160 08/M01 A3023 RMK AO2 SLP236 T00831006
KSJC 241453Z AUTO 20003KT 10SM CLR 06/00 A3022 RMK AO2 SLP234 T00610000 53007
KSJC 241353Z AUTO 00000KT 10SM CLR 05/M01 A3021 RMK AO2 SLP229 T00501006
KSJC 241253Z AUTO 18003KT 10SM CLR 06/00 A3020 RMK AO2 SLP225 T00610000
KSJC 241153Z AUTO 20003KT 10SM CLR 06/00 A3020 RMK AO2 SLP227 70001 T00610000 10106 20061 56009
KSJC 241053Z AUTO 17004KT 10SM CLR 07/00 A3020 RMK AO2 SLP227 T00670000
KSJC 240953Z AUTO 15004KT 10SM CLR 06/00 A3022 RMK AO2 SLP233 T00610000

KSJC 250520Z 2506/2606 14006KT P6SM BKN150
  FM250800 12004KT P6SM SCT080 OVC100
  FM251600 13015G20KT P6SM -RA SCT025 BKN030 OVC040
  FM260100 26008KT P6SM VCSH SCT015 BKN025


KSFO 250856Z 17005KT 10SM FEW120 BKN180 12/03 A3009 RMK AO2 SLP188 T01220033 58018
KSFO 250756Z 17007KT 10SM FEW120 BKN180 13/05 A3010 RMK AO2 SLP192 T01280050 401720067
KSFO 250656Z 20009KT 10SM BKN180 13/03 A3013 RMK AO2 SLP203 T01330033
KSFO 250556Z 21006KT 10SM BKN180 13/04 A3014 RMK AO2 SLP206 T01330039 10167 20128 53007
KSFO 250456Z 13007KT 10SM BKN180 15/06 A3013 RMK AO2 SLP202 T01500061
KSFO 250356Z 18008KT 10SM FEW150 BKN180 14/02 A3012 RMK AO2 SLP200 T01440022
KSFO 250256Z 19009KT 10SM FEW180 BKN200 14/01 A3012 RMK AO2 SLP199 T01440011 58007
KSFO 250156Z 22004KT 10SM SCT180 BKN200 15/01 A3013 RMK AO2 SLP201 T01500006
KSFO 250056Z 23007KT 10SM SCT180 OVC200 16/01 A3013 RMK AO2 SLP204 T01610011
KSFO 242356Z 29009KT 10SM FEW030 OVC200 16/08 A3014 RMK AO2 SLP205 T01610078 10172 20117 56015
KSFO 242256Z 04005KT 10SM FEW030 OVC200 16/05 A3014 RMK AO2 SLP205 T01610050
KSFO 242156Z 02003KT 10SM FEW033 OVC200 16/04 A3016 RMK AO2 SLP212 T01610044
KSFO 242056Z 03003KT 10SM FEW035 OVC200 15/04 A3018 RMK AO2 SLP221 T01500044 58017
KSFO 241956Z 04006KT 10SM FEW021 BKN200 14/06 A3021 RMK AO2 SLP228 T01440061
KSFO 241856Z 04005KT 9SM FEW021 BKN200 13/08 A3023 RMK AO2 SLP235 T01280078
KSFO 241756Z 04004KT 9SM FEW180 BKN200 12/08 A3024 RMK AO2 SLP238 T01220078 10122 20067 51009
KSFO 241656Z 13003KT 9SM FEW018 BKN200 11/06 A3024 RMK AO2 SLP238 T01060061
KSFO 241556Z 13005KT 9SM FEW010 BKN200 10/06 A3022 RMK AO2 SLP233 T01000061
KSFO 241456Z 17005KT 9SM FEW010 SCT200 09/06 A3021 RMK AO2 SLP229 T00890056 52008
KSFO 241356Z 28004KT 9SM FEW035 07/04 A3020 RMK AO2 SLP226 T00670039
KSFO 241256Z 20005KT 8SM FEW018 07/04 A3019 RMK AO2 SLP224 T00670044
KSFO 241156Z 00000KT 8SM FEW018 09/06 A3018 RMK AO2 SLP220 T00940056 10122 20083 58008
KSFO 241056Z 00000KT 8SM FEW015 08/06 A3019 RMK AO2 SLP223 T00830056
KSFO 240956Z 23003KT 8SM CLR 09/06 A3020 RMK AO2 SLP227 T00940056

KSFO 250854Z 2509/2612 17008KT P6SM SCT100 BKN150
  TEMPO 2512/2515 -SHRA BKN050 OVC100
  FM251500 17014KT P6SM VCSH FEW014 BKN050 OVC100
  FM251800 17014G23KT 6SM -SHRA BR SCT014 BKN025 OVC050
  FM252100 25014G20KT 5SM -SHRA BR BKN014 OVC025
  FM260200 27010KT P6SM VCSH BKN015 OVC025
  FM260700 29008KT P6SM SCT012 BKN025


KHAF 250920Z AUTO 13007KT 8SM SCT050 09/04 A3009 RMK AO2
KHAF 250915Z AUTO 14006KT 8SM FEW050 09/05 A3010 RMK AO2
KHAF 250855Z AUTO 16004KT 10SM CLR 09/05 A3011 RMK AO2
KHAF 250840Z AUTO 14005KT 10SM FEW120 10/05 A3011 RMK AO2
KHAF 250835Z AUTO 14005KT 10SM SCT120 10/05 A3011 RMK AO2
KHAF 250815Z AUTO 13008KT 10SM FEW070 BKN120 10/07 A3011 RMK AO2
KHAF 250755Z AUTO 13009KT 8SM FEW070 10/07 A3012 RMK AO2
KHAF 250735Z AUTO 11009KT 7SM FEW003 FEW120 10/06 A3013 RMK AO2
KHAF 250720Z AUTO 13007KT 7SM FEW003 FEW120 10/06 A3014 RMK AO2
KHAF 250715Z AUTO 13005KT 7SM FEW003 SCT120 11/07 A3014 RMK AO2
KHAF 250655Z AUTO 18009KT 8SM CLR 12/08 A3016 RMK AO2
KHAF 250640Z AUTO 19009KT 10SM CLR 12/07 A3015 RMK AO2
KHAF 250635Z AUTO 19008KT 10SM CLR 12/07 A3015 RMK AO2
KHAF 250620Z AUTO 19009KT 9SM CLR 12/08 A3015 RMK AO2
KHAF 250615Z AUTO 19009KT 9SM CLR 13/07 A3016 RMK AO2
KHAF 250600Z AUTO 20008G15KT 9SM CLR 13/07 A3016 RMK AO2
KHAF 250555Z AUTO 20008G15KT 160V230 9SM FEW047 13/07 A3016 RMK AO2
KHAF 250540Z AUTO 17007KT 8SM FEW047 12/07 A3016 RMK AO2
KHAF 250535Z AUTO 17006KT 9SM SCT047 12/07 A3016 RMK AO2
KHAF 250515Z AUTO 18009KT 9SM SCT002 BKN045 13/05 A3015 RMK AO2
KHAF 250500Z AUTO 20009KT 7SM BKN003 BKN045 12/07 A3015 RMK AO2
KHAF 250455Z AUTO 18006KT 7SM SCT002 BKN045 12/07 A3015 RMK AO2
KHAF 250435Z AUTO 18006KT 9SM BKN045 13/05 A3014 RMK AO2
KHAF 250415Z AUTO 18005KT 10SM FEW037 BKN045 13/05 A3014 RMK AO2
KHAF 250400Z AUTO 14005KT 10SM FEW048 13/05 A3014 RMK AO2
KHAF 250355Z AUTO 14005KT 10SM FEW050 12/04 A3014 RMK AO2
KHAF 250340Z AUTO 13004KT 10SM CLR 12/03 A3013 RMK AO2
KHAF 250335Z AUTO 00000KT 10SM CLR 12/03 A3014 RMK AO2
KHAF 250315Z AUTO 11005KT 10SM CLR 13/03 A3013 RMK AO2
KHAF 250255Z AUTO 12005KT 10SM CLR 13/03 A3014 RMK AO2
KHAF 250240Z AUTO 11007KT 9SM CLR 13/03 A3014 RMK AO2
KHAF 250235Z AUTO 10006KT 9SM CLR 13/03 A3014 RMK AO2
KHAF 250215Z AUTO 13005KT 9SM CLR 13/04 A3015 RMK AO2
KHAF 250200Z AUTO 12004KT 7SM CLR 13/07 A3015 RMK AO2
KHAF 250155Z AUTO 12004KT 7SM CLR 13/08 A3015 RMK AO2
KHAF 250135Z AUTO 15004KT 5SM HZ CLR 13/08 A3015 RMK AO2
KHAF 250120Z AUTO 16004KT 8SM CLR 13/08 A3016 RMK AO2
KHAF 250115Z AUTO 14004KT 8SM CLR 13/08 A3016 RMK AO2
KHAF 250100Z AUTO 16003KT 8SM CLR 13/07 A3016 RMK AO2
KHAF 250055Z AUTO 18004KT 8SM CLR 13/07 A3017 RMK AO2
KHAF 250035Z AUTO 16004KT 8SM CLR 13/07 A3016 RMK AO2
KHAF 250015Z AUTO 16004KT 7SM CLR 13/08 A3017 RMK AO2
KHAF 250000Z AUTO 15005KT 7SM CLR 14/07 A3017 RMK AO2
KHAF 242355Z AUTO 15005KT 7SM CLR 14/07 A3018 RMK AO2
KHAF 242335Z AUTO 22004KT 7SM CLR 13/08 A3018 RMK AO2
KHAF 242315Z AUTO 25005KT 7SM CLR 13/08 A3019 RMK AO2
KHAF 242300Z AUTO 22005KT 7SM CLR 13/08 A3018 RMK AO2
KHAF 242255Z AUTO 21004KT 8SM CLR 13/08 A3018 RMK AO2
KHAF 242235Z AUTO 23004KT 7SM CLR 13/08 A3019 RMK AO2
KHAF 242220Z AUTO 23006KT 7SM CLR 13/08 A3019 RMK AO2
KHAF 242215Z AUTO 22005KT 6SM HZ CLR 13/07 A3019 RMK AO2
KHAF 242200Z AUTO 22004KT 6SM HZ CLR 14/07 A3018 RMK AO2
KHAF 242155Z AUTO 19004KT 7SM CLR 13/07 A3018 RMK AO2
KHAF 242140Z AUTO 20004KT 6SM HZ CLR 13/07 A3019 RMK AO2
KHAF 242135Z AUTO 20004KT 5SM HZ CLR 13/08 A3019 RMK AO2
KHAF 242115Z AUTO 26004KT 5SM HZ CLR 13/09 A3020 RMK AO2
KHAF 242100Z AUTO 25004KT 5SM HZ CLR 13/09 A3021 RMK AO2
KHAF 242055Z AUTO 00000KT 5SM HZ CLR 13/08 A3021 RMK AO2
KHAF 242040Z AUTO 25005KT 4SM HZ CLR 13/09 A3022 RMK AO2
KHAF 242035Z AUTO 25004KT 4SM HZ CLR 13/09 A3022 RMK AO2
KHAF 242020Z AUTO 29004KT 5SM HZ CLR 13/09 A3022 RMK AO2
KHAF 242015Z AUTO 28005KT 5SM HZ CLR 13/09 A3022 RMK AO2
KHAF 242000Z AUTO 27006KT 5SM HZ CLR 13/08 A3022 RMK AO2
KHAF 241955Z AUTO 29005KT 5SM HZ CLR 13/09 A3022 RMK AO2
KHAF 241935Z AUTO 28006KT 5SM HZ CLR 14/09 A3023 RMK AO2
KHAF 241920Z AUTO 27005KT 5SM HZ CLR 13/08 A3023 RMK AO2
KHAF 241915Z AUTO 27005KT 5SM HZ CLR 13/08 A3023 RMK AO2
KHAF 241855Z AUTO 28004KT 5SM HZ CLR 13/09 A3024 RMK AO2
KHAF 241840Z AUTO 28005KT 5SM HZ CLR 13/09 A3024 RMK AO2
KHAF 241835Z AUTO 28006KT 6SM HZ CLR 13/09 A3024 RMK AO2
KHAF 241815Z AUTO 27005KT 5SM HZ CLR 13/08 A3024 RMK AO2
KHAF 241755Z AUTO 31003KT 5SM HZ CLR 12/08 A3024 RMK AO2
KHAF 241735Z AUTO 29003KT 5SM HZ CLR 12/08 A3024 RMK AO2
KHAF 241720Z AUTO 26003KT 5SM HZ CLR 12/07 A3024 RMK AO2
KHAF 241715Z AUTO 30004KT 5SM HZ CLR 12/08 A3024 RMK AO2
KHAF 241655Z AUTO 27003KT 6SM HZ CLR 12/06 A3024 RMK AO2
KHAF 241640Z AUTO 00000KT 4SM HZ CLR 12/07 A3024 RMK AO2
KHAF 241635Z AUTO 00000KT 4SM HZ CLR 11/07 A3023 RMK AO2
KHAF 241615Z AUTO 00000KT 4SM HZ CLR 10/07 A3022 RMK AO2
KHAF 241600Z AUTO 00000KT 6SM BR CLR 09/07 A3022 RMK AO2
KHAF 241555Z AUTO 00000KT 8SM CLR 08/07 A3022 RMK AO2
KHAF 241540Z AUTO 00000KT 8SM CLR 07/06 A3022 RMK AO2
KHAF 241535Z AUTO 00000KT 7SM CLR 07/05 A3022 RMK AO2
KHAF 241515Z AUTO 00000KT 9SM CLR 06/05 A3022 RMK AO2
KHAF 241500Z AUTO 00000KT 9SM CLR 05/04 A3021 RMK AO2
KHAF 241455Z AUTO 00000KT 9SM CLR 04/03 A3021 RMK AO2
KHAF 241435Z AUTO 06003KT 9SM CLR 04/03 A3022 RMK AO2
KHAF 241415Z AUTO 00000KT 9SM CLR 04/03 A3021 RMK AO2
KHAF 241400Z AUTO 00000KT 10SM CLR 04/03 A3021 RMK AO2
KHAF 241355Z AUTO 00000KT 10SM CLR 03/03 A3021 RMK AO2
KHAF 241335Z AUTO 00000KT 10SM CLR 04/03 A3021 RMK AO2
KHAF 241320Z AUTO 00000KT 10SM CLR 04/03 A3020 RMK AO2
KHAF 241315Z AUTO 00000KT 10SM CLR 04/03 A3021 RMK AO2
KHAF 241300Z AUTO 00000KT 10SM FEW004 04/03 A3020 RMK AO2
KHAF 241255Z AUTO 00000KT 10SM FEW004 04/03 A3020 RMK AO2
KHAF 241240Z AUTO 00000KT 10SM FEW004 04/03 A3020 RMK AO2
KHAF 241235Z AUTO 00000KT 10SM FEW004 04/03 A3020 RMK AO2
KHAF 241220Z AUTO 00000KT 10SM FEW005 04/03 A3020 RMK AO2
KHAF 241215Z AUTO 00000KT 10SM FEW005 04/03 A3020 RMK AO2
KHAF 241200Z AUTO 00000KT 10SM CLR 04/03 A3020 RMK AO2
KHAF 241155Z AUTO 06003KT 10SM CLR 04/03 A3019 RMK AO2
KHAF 241140Z AUTO 04003KT 10SM CLR 05/04 A3020 RMK AO2
KHAF 241135Z AUTO 06006KT 10SM CLR 05/04 A3020 RMK AO2
KHAF 241115Z AUTO 00000KT 10SM CLR 04/03 A3021 RMK AO2
KHAF 241055Z AUTO 06003KT 10SM CLR 04/03 A3020 RMK AO2
KHAF 241035Z AUTO 00000KT 10SM SCT003 04/03 A3020 RMK AO2
KHAF 241015Z AUTO 00000KT 10SM SCT003 04/03 A3021 RMK AO2
KHAF 240955Z AUTO 00000KT 10SM CLR 04/04 A3021 RMK AO2
KHAF 240935Z AUTO 00000KT 10SM CLR 05/04 A3021 RMK AO2
No TAF found for KHAF